Time;durP1;ratioP1;P1;durP2;ratioP2;P2;SDS_P1;SDS_P2;PMS_P1;PMS_P2;Temp;Humidity;BMP_temperature;BMP_pressure;BME280_temperature;BME280_humidity;BME280_pressure;Samples;Min_cycle;Max_cycle;Signal;HPM_P1;HPM_P2
2022/07/01 00:00:40;;;;;;;3.83;2.05;;;;;;;17.43;59.92;101401.50;5202746;28;20425;-36
2022/07/01 00:03:12;;;;;;;5.90;2.13;;;;;;;17.59;60.01;101421.03;5205973;28;20424;-35
2022/07/01 00:05:45;;;;;;;3.00;1.50;;;;;;;17.54;60.14;101423.44;5205678;28;20428;-35
2022/07/01 00:08:19;;;;;;;5.38;2.10;;;;;;;17.55;60.12;101430.44;5204550;28;20431;-39
2022/07/01 00:10:52;;;;;;;4.25;2.03;;;;;;;17.53;60.04;101427.97;5202796;28;20423;-36
2022/07/01 00:13:24;;;;;;;8.20;2.28;;;;;;;17.47;60.06;101424.19;5202781;28;20493;-36
2022/07/01 00:15:57;;;;;;;5.00;2.35;;;;;;;17.46;60.11;101440.38;5202125;28;20409;-37
2022/07/01 00:18:30;;;;;;;6.35;2.45;;;;;;;17.43;60.18;101443.38;5204227;28;20819;-36
2022/07/01 00:21:03;;;;;;;5.28;2.67;;;;;;;17.34;60.27;101426.59;5199297;28;20404;-36
2022/07/01 00:23:37;;;;;;;8.13;3.40;;;;;;;17.34;60.19;101429.28;5205554;28;20435;-36
2022/07/01 00:26:10;;;;;;;9.05;3.55;;;;;;;17.36;60.23;101427.25;5203212;28;20540;-36
2022/07/01 00:28:43;;;;;;;6.65;4.00;;;;;;;17.37;60.21;101420.91;5202203;28;20421;-35
2022/07/01 00:31:16;;;;;;;7.32;5.18;;;;;;;17.34;60.28;101418.59;5201976;28;20413;-35
2022/07/01 00:33:49;;;;;;;11.85;5.60;;;;;;;17.31;60.28;101418.97;5204547;28;20940;-35
2022/07/01 00:36:22;;;;;;;10.03;6.27;;;;;;;17.34;60.34;101429.28;5201326;28;20413;-37
2022/07/01 00:38:56;;;;;;;9.65;7.15;;;;;;;17.09;60.35;101406.47;5200172;28;20504;-38
2022/07/01 00:41:28;;;;;;;10.30;7.63;;;;;;;17.19;60.53;101431.09;5198488;28;20424;-38
2022/07/01 00:44:01;;;;;;;12.63;8.57;;;;;;;17.23;60.58;101448.41;5196367;28;20421;-36
2022/07/01 00:46:34;;;;;;;16.23;11.10;;;;;;;17.14;60.69;101444.13;5197906;28;20817;-36
2022/07/01 00:49:07;;;;;;;15.00;10.90;;;;;;;17.11;60.74;101449.84;5196280;28;20440;-35
2022/07/01 00:51:40;;;;;;;19.63;12.95;;;;;;;16.90;60.73;101427.28;5195422;28;20557;-35
2022/07/01 00:54:14;;;;;;;17.73;13.88;;;;;;;17.03;60.81;101470.25;5201305;28;20409;-35
2022/07/01 00:56:47;;;;;;;26.15;16.90;;;;;;;16.97;60.87;101464.75;5200122;28;20514;-35
2022/07/01 00:59:20;;;;;;;23.88;16.70;;;;;;;16.91;61.05;101466.31;5201412;28;20842;-35
2022/07/01 01:01:53;;;;;;;23.35;18.23;;;;;;;16.85;61.27;101460.81;5200448;28;20448;-36
2022/07/01 01:04:26;;;;;;;23.63;18.00;;;;;;;16.70;61.15;101458.88;5200143;28;20409;-36
2022/07/01 01:06:58;;;;;;;28.60;20.67;;;;;;;16.73;61.41;101463.03;5200328;28;21456;-35
2022/07/01 01:09:34;;;;;;;28.05;20.67;;;;;;;16.69;61.45;101461.72;5201178;28;20409;-36
2022/07/01 01:12:07;;;;;;;31.23;21.35;;;;;;;16.70;61.44;101468.72;5203839;28;20495;-36
2022/07/01 01:14:47;;;;;;;32.92;23.25;;;;;;;16.66;61.52;101462.91;5200444;28;20725;-35
2022/07/01 01:17:21;;;;;;;35.80;24.30;;;;;;;16.65;61.74;101455.91;5204449;28;20431;-37
2022/07/01 01:19:54;;;;;;;34.95;25.02;;;;;;;16.68;61.72;101460.06;5205973;28;20425;-36
2022/07/01 01:22:28;;;;;;;33.67;24.95;;;;;;;16.60;61.77;101448.44;5195541;28;20573;-35
2022/07/01 01:25:05;;;;;;;32.67;25.20;;;;;;;16.64;61.90;101456.09;5198026;28;20416;-36
2022/07/01 01:27:38;;;;;;;41.13;25.08;;;;;;;16.64;61.79;101454.25;5198013;28;20415;-39
2022/07/01 01:30:13;;;;;;;38.47;25.88;;;;;;;16.66;61.89;101456.72;5202301;28;20425;-35
2022/07/01 01:32:46;;;;;;;37.65;25.35;;;;;;;16.66;61.98;101448.72;5199873;28;20586;-36
2022/07/01 01:35:18;;;;;;;35.10;25.07;;;;;;;16.63;62.01;101449.06;5203461;28;20611;-35
2022/07/01 01:37:53;;;;;;;37.42;27.13;;;;;;;16.63;62.20;101451.75;5203380;28;20421;-36
2022/07/01 01:40:26;;;;;;;38.47;28.10;;;;;;;16.60;62.15;101459.09;5203120;28;20422;-36
2022/07/01 01:42:58;;;;;;;42.35;27.48;;;;;;;16.58;62.19;101461.09;5201156;28;20951;-37
2022/07/01 01:45:31;;;;;;;41.47;27.77;;;;;;;16.58;62.36;101471.78;5203432;28;20424;-36
2022/07/01 01:48:04;;;;;;;40.53;27.70;;;;;;;16.57;62.35;101472.78;5199345;28;20410;-36
2022/07/01 01:50:37;;;;;;;45.47;28.75;;;;;;;16.55;62.29;101465.97;5202570;28;20582;-35
2022/07/01 01:53:11;;;;;;;45.33;28.75;;;;;;;16.50;62.41;101466.47;5199926;28;20416;-36
2022/07/01 01:55:44;;;;;;;48.35;28.80;;;;;;;16.51;62.63;101486.81;5204513;28;20425;-36
2022/07/01 01:58:16;;;;;;;38.58;27.23;;;;;;;16.45;62.74;101484.84;5199896;28;20825;-35
2022/07/01 02:00:49;;;;;;;49.07;30.33;;;;;;;16.44;62.87;101490.31;5197824;28;20413;-36
2022/07/01 02:03:22;;;;;;;49.78;30.60;;;;;;;16.44;62.85;101488.47;5198320;28;20413;-36
2022/07/01 02:05:55;;;;;;;47.22;31.08;;;;;;;16.41;62.85;101488.81;5198983;28;20832;-38
2022/07/01 02:08:29;;;;;;;46.13;29.15;;;;;;;16.42;62.94;101495.84;5200180;28;20928;-36
2022/07/01 02:11:02;;;;;;;45.53;29.30;;;;;;;16.29;63.09;101476.88;5191929;28;20590;-37
2022/07/01 02:13:35;;;;;;;40.47;27.53;;;;;;;16.27;63.17;101473.56;5199724;28;20437;-37
2022/07/01 02:16:08;;;;;;;40.60;28.30;;;;;;;16.31;63.25;101485.53;5203338;28;20413;-39
2022/07/01 02:18:41;;;;;;;37.65;27.65;;;;;;;16.13;63.49;101478.63;5203219;28;20438;-37
2022/07/01 02:21:14;;;;;;;37.53;27.67;;;;;;;16.24;63.43;101492.56;5206717;28;20428;-35
2022/07/01 02:23:48;;;;;;;40.43;27.73;;;;;;;16.24;63.44;101489.91;5201173;28;20456;-35
2022/07/01 02:26:20;;;;;;;40.10;26.83;;;;;;;16.22;63.66;101497.22;5201186;28;23129;-36
2022/07/01 02:28:53;;;;;;;42.83;28.73;;;;;;;16.19;63.49;101497.56;5199016;28;20461;-36
2022/07/01 02:31:26;;;;;;;41.70;27.42;;;;;;;16.17;63.60;101504.91;5200915;28;20777;-36
2022/07/01 02:33:58;;;;;;;38.53;25.60;;;;;;;16.12;63.61;101492.09;5199572;28;20416;-36
2022/07/01 02:36:31;;;;;;;40.60;26.73;;;;;;;16.11;63.64;101496.59;5200772;28;20485;-37
2022/07/01 02:39:05;;;;;;;39.63;25.85;;;;;;;16.08;63.78;101502.25;5198105;28;20742;-36
2022/07/01 02:44:24;;;;;;;35.53;23.15;;;;;;;15.97;64.05;101521.25;5200235;28;20417;-36
2022/07/01 02:46:57;;;;;;;43.22;26.33;;;;;;;16.05;63.90;101501.78;5201710;28;20894;-36
2022/07/01 02:49:30;;;;;;;41.08;26.35;;;;;;;16.06;63.75;101493.59;5199574;28;20401;-39
2022/07/01 02:52:03;;;;;;;38.42;25.95;;;;;;;16.04;63.83;101489.44;5195717;28;20425;-37
2022/07/01 02:54:37;;;;;;;39.40;25.63;;;;;;;15.92;63.75;101475.66;5196830;28;20475;-36
2022/07/01 02:57:10;;;;;;;41.67;26.55;;;;;;;16.02;63.70;101500.28;5201116;28;20417;-39
2022/07/01 02:59:43;;;;;;;47.72;27.10;;;;;;;16.06;63.79;101517.56;5198078;28;20477;-37
2022/07/01 03:02:15;;;;;;;44.03;25.85;;;;;;;16.03;63.68;101514.41;5198441;28;20441;-39
2022/07/01 03:04:48;;;;;;;36.83;24.67;;;;;;;16.02;63.89;101521.59;5200211;28;20474;-35
2022/07/01 03:07:22;;;;;;;39.55;24.35;;;;;;;16.03;63.91;101515.25;5199390;28;20909;-38
2022/07/01 03:09:56;;;;;;;36.70;23.90;;;;;;;16.02;64.02;101513.59;5199579;28;20421;-35
2022/07/01 03:12:29;;;;;;;41.22;26.05;;;;;;;16.00;63.90;101526.25;5201211;28;20850;-36
2022/07/01 03:15:03;;;;;;;43.17;25.63;;;;;;;15.98;64.06;101517.59;5194208;28;20424;-36
2022/07/01 03:17:38;;;;;;;39.65;25.42;;;;;;;16.02;64.00;101515.44;5199745;28;20410;-37
2022/07/01 03:20:13;;;;;;;41.95;25.30;;;;;;;16.02;64.04;101507.44;5199954;28;20544;-36
2022/07/01 03:22:47;;;;;;;42.00;25.02;;;;;;;15.99;64.14;101487.28;5199251;28;20503;-37
2022/07/01 03:25:22;;;;;;;45.70;25.25;;;;;;;15.82;64.20;101457.16;5200565;28;20432;-37
2022/07/01 03:27:54;;;;;;;44.97;25.30;;;;;;;15.96;64.13;101479.63;5198598;28;20424;-36
2022/07/01 03:30:27;;;;;;;37.63;24.10;;;;;;;15.89;64.16;101470.66;5197820;28;20541;-36
2022/07/01 03:32:59;;;;;;;33.35;22.63;;;;;;;15.96;64.27;101482.31;5199581;28;20412;-36
2022/07/01 03:35:45;;;;;;;39.30;23.35;;;;;;;15.97;64.21;101489.28;5199286;28;20987;-37
2022/07/01 03:38:18;;;;;;;37.50;22.63;;;;;;;15.96;64.29;101492.97;5197472;28;20932;-35
2022/07/01 03:40:52;;;;;;;36.55;22.52;;;;;;;15.97;64.31;101497.28;5202342;28;20431;-37
2022/07/01 03:43:25;;;;;;;35.00;21.77;;;;;;;15.96;64.37;101498.28;5200802;28;20400;-36
2022/07/01 03:45:58;;;;;;;34.47;21.52;;;;;;;16.00;64.35;101494.28;5200096;28;20425;-44
2022/07/01 03:48:30;;;;;;;38.00;22.05;;;;;;;16.01;64.31;101479.97;5199735;28;20417;-36
2022/07/01 03:51:03;;;;;;;36.35;21.15;;;;;;;16.00;64.25;101483.63;5195488;28;20506;-36
2022/07/01 03:56:27;;;;;;;27.67;19.25;;;;;;;16.07;64.35;101503.28;5196920;28;20409;-36
2022/07/01 03:59:00;;;;;;;32.30;19.38;;;;;;;16.09;64.42;101495.91;5195264;28;20487;-36
2022/07/01 04:01:33;;;;;;;31.77;18.77;;;;;;;16.11;64.33;101506.44;5197246;28;20410;-37
2022/07/01 04:04:06;;;;;;;30.70;18.60;;;;;;;16.10;64.50;101499.41;5198686;28;20406;-36
2022/07/01 04:06:39;;;;;;;32.17;19.13;;;;;;;16.12;64.31;101511.56;5201128;28;20889;-36
2022/07/01 04:09:13;;;;;;;31.13;19.05;;;;;;;16.18;64.37;101522.56;5201549;28;20834;-36
2022/07/01 04:11:50;;;;;;;33.80;18.75;;;;;;;16.18;64.45;101523.38;5201134;28;20487;-36
2022/07/01 04:14:24;;;;;;;31.38;19.15;;;;;;;16.21;64.49;101530.22;5197431;28;20431;-36
2022/07/01 04:16:56;;;;;;;29.13;19.30;;;;;;;16.22;64.54;101534.53;5197881;28;20425;-36
2022/07/01 04:19:29;;;;;;;25.00;17.63;;;;;;;16.22;64.54;101534.53;5201318;28;20481;-35
2022/07/01 04:24:52;;;;;;;24.52;16.33;;;;;;;16.03;64.58;101514.41;5198763;28;20413;-36
2022/07/01 04:27:26;;;;;;;24.55;15.27;;;;;;;16.23;64.68;101546.84;5208282;28;20522;-36
2022/07/01 04:29:59;;;;;;;24.58;14.90;;;;;;;16.22;64.77;101534.53;5206951;28;20596;-36
2022/07/01 04:32:32;;;;;;;23.77;14.27;;;;;;;16.24;64.98;101548.53;5203979;28;20493;-36
2022/07/01 04:35:06;;;;;;;21.83;13.23;;;;;;;16.31;64.72;101544.19;5201049;28;20440;-35
2022/07/01 04:37:38;;;;;;;20.95;11.88;;;;;;;16.33;64.77;101547.53;5207266;28;20432;-36
2022/07/01 04:40:11;;;;;;;20.75;11.70;;;;;;;16.32;64.70;101548.50;5208669;28;20809;-37
2022/07/01 04:42:44;;;;;;;20.52;10.75;;;;;;;16.29;64.87;101546.19;5204965;28;20506;-35
2022/07/01 04:45:17;;;;;;;20.58;11.15;;;;;;;16.47;64.80;101548.63;5205652;28;20417;-35
2022/07/01 04:47:50;;;;;;;17.92;11.25;;;;;;;16.52;64.63;101549.78;5208832;28;20512;-35
2022/07/01 04:50:23;;;;;;;17.85;11.40;;;;;;;16.57;64.73;101552.78;5207902;28;20407;-34
2022/07/01 04:52:55;;;;;;;24.52;10.20;;;;;;;16.64;64.83;101555.59;5208438;28;20406;-36
2022/07/01 04:55:28;;;;;;;18.55;10.05;;;;;;;16.70;64.61;101554.06;5207176;28;20441;-36
2022/07/01 04:58:02;;;;;;;17.02;10.48;;;;;;;16.75;64.71;101546.38;5207916;28;20546;-35
2022/07/01 05:00:35;;;;;;;16.60;9.57;;;;;;;16.78;64.61;101552.22;5202491;28;20913;-36
2022/07/01 05:03:08;;;;;;;16.73;9.93;;;;;;;16.82;64.54;101547.41;5205581;28;20504;-36
2022/07/01 05:05:41;;;;;;;18.63;10.15;;;;;;;16.87;64.51;101545.00;5203177;28;20854;-37
2022/07/01 05:08:14;;;;;;;20.48;10.05;;;;;;;16.98;64.38;101552.66;5205714;28;20420;-37
2022/07/01 05:10:46;;;;;;;14.37;7.77;;;;;;;17.48;63.66;101527.31;5204920;28;20429;-36
2022/07/01 05:13:21;;;;;;;18.00;8.73;;;;;;;18.86;62.57;101551.06;5207601;28;20433;-38
2022/07/01 05:15:53;;;;;;;15.30;7.70;;;;;;;20.06;61.42;101562.16;5209529;28;20447;-36
2022/07/01 05:24:08;;;;;;;15.30;6.32;;;;;;;20.95;60.88;101564.97;5199618;28;20888;-35
2022/07/01 05:26:41;;;;;;;11.57;5.40;;;;;;;20.67;60.95;101565.88;5201612;28;20514;-37
2022/07/01 05:29:15;;;;;;;11.68;5.55;;;;;;;21.00;60.41;101567.03;5203329;28;20416;-37
2022/07/01 05:31:48;;;;;;;19.47;6.23;;;;;;;21.68;59.18;101557.13;5206530;28;20466;-41
2022/07/01 05:34:21;;;;;;;12.60;5.78;;;;;;;22.82;57.79;101572.06;5204102;28;20466;-38
2022/07/01 05:36:54;;;;;;;9.60;5.28;;;;;;;23.27;57.27;101580.19;5202011;28;21077;-37
2022/07/01 05:39:27;;;;;;;10.40;4.63;;;;;;;23.97;55.98;101576.59;5203870;28;20437;-40
2022/07/01 05:41:59;;;;;;;11.55;4.55;;;;;;;23.59;55.91;101564.81;5198533;28;20406;-36
2022/07/01 05:44:34;;;;;;;14.50;4.72;;;;;;;23.39;55.79;101574.94;5203771;28;20421;-39
2022/07/01 05:47:08;;;;;;;10.30;4.97;;;;;;;23.26;55.74;101570.44;5203305;28;20928;-37
2022/07/01 05:49:40;;;;;;;17.20;5.57;;;;;;;23.07;55.59;101565.97;5205848;28;20401;-36
2022/07/01 05:52:13;;;;;;;10.95;5.05;;;;;;;23.06;55.30;101572.41;5204539;28;20518;-37
2022/07/01 05:54:46;;;;;;;12.05;5.25;;;;;;;23.26;54.82;101578.53;5203901;28;20800;-36
2022/07/01 05:57:18;;;;;;;8.77;4.50;;;;;;;23.09;54.31;101550.44;5202252;28;20431;-37
2022/07/01 05:59:53;;;;;;;10.23;4.70;;;;;;;23.04;54.67;101569.91;5206626;28;20390;-36
2022/07/01 06:02:26;;;;;;;9.75;5.07;;;;;;;22.67;54.52;101556.19;5208882;28;20397;-36
2022/07/01 06:04:59;;;;;;;15.60;5.47;;;;;;;22.44;54.56;101559.34;5194186;28;20425;-35
2022/07/01 06:07:32;;;;;;;12.57;5.23;;;;;;;22.12;54.83;101565.59;5201958;28;20575;-36
2022/07/01 06:10:06;;;;;;;11.55;4.75;;;;;;;21.82;54.95;101561.44;5205827;28;20401;-35
2022/07/01 06:12:39;;;;;;;12.73;5.47;;;;;;;21.60;54.96;101558.13;5203420;28;20417;-36
2022/07/01 06:15:14;;;;;;;11.90;4.60;;;;;;;21.08;54.70;101497.84;5206187;28;20409;-36
2022/07/01 06:17:46;;;;;;;18.17;4.67;;;;;;;22.47;54.14;101558.91;5206137;28;20449;-36
2022/07/01 06:20:19;;;;;;;9.05;4.20;;;;;;;23.17;53.24;101559.09;5206577;28;20414;-36
2022/07/01 06:22:52;;;;;;;9.73;4.32;;;;;;;23.43;52.70;101558.09;5205437;28;20409;-35
2022/07/01 06:25:25;;;;;;;11.23;4.28;;;;;;;23.39;52.37;101556.88;5204239;28;20471;-36
2022/07/01 06:27:57;;;;;;;9.32;3.95;;;;;;;23.30;52.33;101558.19;5203908;28;20429;-37
2022/07/01 06:30:32;;;;;;;13.17;4.70;;;;;;;23.64;52.05;101551.53;5204397;28;20767;-37
2022/07/01 06:33:05;;;;;;;11.15;4.40;;;;;;;24.81;50.72;101575.16;5205586;28;20417;-37
2022/07/01 06:35:37;;;;;;;10.65;4.10;;;;;;;25.71;49.71;101575.16;5205521;28;20505;-37
2022/07/01 06:38:10;;;;;;;9.77;3.47;;;;;;;26.79;48.38;101569.47;5202488;28;20743;-36
2022/07/01 06:41:26;;;;;;;7.75;3.67;;;;;;;27.89;47.13;101568.25;5205006;28;20535;-35
2022/07/01 06:43:36;;;;;;;10.60;3.83;;;;;;;27.93;46.67;101569.41;5187342;28;20422;-37
2022/07/01 06:46:10;;;;;;;8.88;2.83;;;;;;;27.97;46.82;101558.91;5201282;28;20417;-37
2022/07/01 06:48:43;;;;;;;9.00;3.30;;;;;;;28.00;46.49;101569.25;5215518;28;20426;-36
2022/07/01 06:51:16;;;;;;;13.38;3.83;;;;;;;28.08;46.12;101555.25;5206012;28;20436;-36
2022/07/01 06:53:49;;;;;;;7.85;2.38;;;;;;;27.81;46.29;101561.38;5205022;28;20882;-36
2022/07/01 06:56:22;;;;;;;10.57;3.13;;;;;;;27.95;45.98;101566.47;5205189;28;20909;-36
2022/07/01 06:58:56;;;;;;;8.60;2.67;;;;;;;28.33;45.43;101567.53;5205726;28;20415;-36
2022/07/01 07:01:30;;;;;;;9.93;2.55;;;;;;;28.95;44.47;101565.34;5204055;28;20492;-36
2022/07/01 07:04:05;;;;;;;10.30;2.50;;;;;;;29.19;44.18;101565.09;5192954;28;20424;-37
2022/07/01 07:06:38;;;;;;;6.83;2.50;;;;;;;28.98;44.26;101558.59;5197699;28;20433;-38
2022/07/01 07:09:11;;;;;;;8.77;2.50;;;;;;;28.32;44.68;101555.84;5200840;28;20488;-37
2022/07/01 07:11:44;;;;;;;6.37;2.30;;;;;;;28.04;44.65;101575.84;5201792;28;20517;-36
2022/07/01 07:14:17;;;;;;;8.05;2.70;;;;;;;27.48;44.91;101561.31;5202486;28;20874;-38
2022/07/01 07:16:54;;;;;;;8.52;2.50;;;;;;;27.60;45.00;101575.66;5200638;28;20425;-38
2022/07/01 07:19:29;;;;;;;7.95;1.77;;;;;;;27.77;44.76;101575.63;5201146;28;20417;-37
2022/07/01 07:22:02;;;;;;;6.40;2.00;;;;;;;28.14;44.10;101586.03;5199971;28;20885;-37
2022/07/01 07:24:34;;;;;;;8.60;2.20;;;;;;;27.85;44.37;101572.56;5201776;28;20416;-37
2022/07/01 07:27:07;;;;;;;8.20;2.27;;;;;;;28.11;43.90;101559.34;5202852;28;20417;-39
2022/07/01 07:29:40;;;;;;;10.73;2.20;;;;;;;28.12;43.60;101588.16;5202912;28;20799;-36
2022/07/01 07:32:14;;;;;;;6.10;1.50;;;;;;;28.48;43.43;101575.94;5204240;28;20512;-36
2022/07/01 07:34:47;;;;;;;10.03;2.50;;;;;;;28.57;42.92;101579.03;5203109;28;20413;-37
2022/07/01 07:37:19;;;;;;;6.45;1.90;;;;;;;28.35;42.90;101598.81;5200160;28;20416;-37
2022/07/01 07:39:52;;;;;;;7.78;2.35;;;;;;;27.82;43.02;101594.75;5201746;28;20528;-36
2022/07/01 07:42:25;;;;;;;11.53;1.70;;;;;;;27.18;43.36;101594.13;5203068;28;20455;-39
2022/07/01 07:44:58;;;;;;;6.38;1.75;;;;;;;26.57;43.77;101602.66;5205210;28;20444;-37
2022/07/01 07:47:32;;;;;;;6.22;1.60;;;;;;;26.20;44.07;101578.50;5206201;28;20780;-37
2022/07/01 07:50:06;;;;;;;6.57;1.60;;;;;;;26.68;43.91;101609.94;5197414;28;20459;-36
2022/07/01 07:52:39;;;;;;;3.85;1.30;;;;;;;26.69;43.83;101616.16;5202191;28;20845;-37
2022/07/01 07:55:12;;;;;;;7.55;1.80;;;;;;;26.91;43.50;101624.47;5198395;28;20441;-38
2022/07/01 07:57:44;;;;;;;5.05;1.20;;;;;;;27.29;43.07;101639.38;5202908;28;20456;-39
2022/07/01 08:00:18;;;;;;;3.03;0.75;;;;;;;27.19;42.76;101633.75;5203102;28;20413;-36
2022/07/01 08:02:52;;;;;;;7.00;1.40;;;;;;;26.78;42.60;101632.88;5207129;28;20453;-36
2022/07/01 08:05:25;;;;;;;5.03;1.50;;;;;;;26.33;42.51;101598.28;5206037;28;20471;-37
2022/07/01 08:07:58;;;;;;;4.93;1.05;;;;;;;26.24;42.62;101613.25;5207225;28;20844;-36
2022/07/01 08:10:31;;;;;;;4.28;1.00;;;;;;;26.20;42.84;101605.59;5204895;28;20419;-36
2022/07/01 08:13:05;;;;;;;2.95;1.00;;;;;;;26.39;42.61;101613.59;5206007;28;20409;-37
2022/07/01 08:15:38;;;;;;;2.57;0.80;;;;;;;26.52;42.21;101613.38;5212460;28;20413;-36
2022/07/01 08:18:12;;;;;;;6.03;1.47;;;;;;;26.34;42.20;101627.00;5208430;28;20824;-38
2022/07/01 08:20:45;;;;;;;5.30;0.90;;;;;;;26.22;42.35;101630.53;5207515;28;20439;-36
2022/07/01 08:23:18;;;;;;;4.85;1.08;;;;;;;26.42;42.15;101634.78;5206358;28;20434;-37
2022/07/01 08:25:52;;;;;;;5.25;0.98;;;;;;;26.68;41.86;101639.72;5198648;28;20424;-36
2022/07/01 08:28:25;;;;;;;3.73;0.77;;;;;;;27.10;41.50;101642.25;5205967;28;20498;-37
2022/07/01 08:30:58;;;;;;;3.83;0.80;;;;;;;27.41;41.20;101653.72;5204085;28;20733;-36
2022/07/01 08:33:32;;;;;;;3.47;0.97;;;;;;;27.53;40.87;101650.94;5203175;28;20546;-37
2022/07/01 08:36:05;;;;;;;3.00;0.85;;;;;;;27.63;40.98;101661.19;5196011;28;20712;-37
2022/07/01 08:38:39;;;;;;;4.97;0.93;;;;;;;27.67;40.46;101654.19;5204352;28;20764;-34
2022/07/01 08:41:14;;;;;;;2.35;0.90;;;;;;;27.64;40.34;101651.97;5200898;28;20425;-37
2022/07/01 08:43:46;;;;;;;4.50;0.90;;;;;;;27.59;40.43;101669.81;5206240;28;20838;-37
2022/07/01 08:46:19;;;;;;;4.97;1.20;;;;;;;27.72;40.13;101654.28;5202441;28;20849;-39
2022/07/01 08:48:53;;;;;;;5.32;1.35;;;;;;;28.00;39.80;101675.97;5203215;28;20836;-37
2022/07/01 08:51:26;;;;;;;2.40;0.77;;;;;;;28.11;39.71;101674.22;5202924;28;20792;-47
2022/07/01 08:53:59;;;;;;;5.07;1.08;;;;;;;28.13;39.60;101676.72;5203331;28;20428;-37
2022/07/01 08:56:45;;;;;;;2.33;0.80;;;;;;;28.21;39.43;101679.84;5204414;28;20417;-39
2022/07/01 08:59:25;;;;;;;4.55;1.10;;;;;;;28.28;39.27;101680.50;5202038;28;20947;-37
2022/07/01 09:02:00;;;;;;;5.80;1.02;;;;;;;28.27;39.08;101667.16;5201037;28;20491;-37
2022/07/01 09:04:35;;;;;;;3.88;1.10;;;;;;;28.10;39.38;101677.22;5199983;28;20487;-38
2022/07/01 09:07:09;;;;;;;5.37;1.50;;;;;;;27.94;39.19;101690.53;5203095;28;20421;-39
2022/07/01 09:09:42;;;;;;;8.53;1.83;;;;;;;27.78;39.12;101685.88;5198898;28;20808;-40
2022/07/01 09:12:18;;;;;;;7.72;1.58;;;;;;;27.84;38.99;101684.91;5197546;28;20475;-39
2022/07/01 09:14:51;;;;;;;6.50;0.90;;;;;;;27.87;38.75;101689.84;5196792;28;20525;-38
2022/07/01 09:17:24;;;;;;;5.65;1.13;;;;;;;27.96;38.47;101704.66;5195406;28;20500;-40
2022/07/01 09:19:58;;;;;;;3.83;0.93;;;;;;;27.98;38.18;101697.09;5196324;28;20924;-37
2022/07/01 09:22:31;;;;;;;5.03;1.08;;;;;;;27.96;37.95;101703.84;5196429;28;20540;-38
2022/07/01 09:25:14;;;;;;;6.77;1.20;;;;;;;27.96;37.79;101696.53;5196952;28;20432;-37
2022/07/01 09:27:49;;;;;;;6.65;1.30;;;;;;;28.04;37.51;101703.44;5196324;28;20414;-41
2022/07/01 09:30:29;;;;;;;4.20;1.00;;;;;;;27.96;37.25;101699.22;5198474;28;20461;-38
2022/07/01 09:33:14;;;;;;;4.35;1.20;;;;;;;27.83;37.13;101707.69;5195532;28;20417;-40
2022/07/01 09:35:50;;;;;;;3.87;1.20;;;;;;;27.22;37.31;101652.25;5195142;28;20416;-37
2022/07/01 09:38:24;;;;;;;5.85;1.02;;;;;;;27.36;37.24;101716.00;5186589;28;20413;-41
2022/07/01 09:40:59;;;;;;;5.78;1.60;;;;;;;27.21;37.37;101707.56;5198029;28;20425;-38
2022/07/01 09:43:34;;;;;;;6.43;1.10;;;;;;;27.31;36.97;101721.31;5202660;28;20939;-37
2022/07/01 09:46:10;;;;;;;4.47;1.10;;;;;;;27.21;36.95;101685.84;5196341;28;20466;-39
2022/07/01 09:48:47;;;;;;;7.97;1.88;;;;;;;27.15;36.94;101697.66;5202976;28;20954;-38
2022/07/01 09:51:21;;;;;;;4.38;1.23;;;;;;;26.83;37.11;101703.47;5202221;28;20941;-38
2022/07/01 09:53:54;;;;;;;5.13;1.50;;;;;;;26.37;37.10;101680.72;5199211;28;20409;-39
2022/07/01 09:56:27;;;;;;;5.17;1.03;;;;;;;26.18;37.33;101713.28;5201120;28;20587;-37
2022/07/01 09:59:00;;;;;;;6.40;1.30;;;;;;;25.82;37.60;101716.13;5200998;28;20785;-41
2022/07/01 10:01:33;;;;;;;5.90;1.10;;;;;;;24.83;37.68;101627.06;5200611;28;20424;-37
2022/07/01 10:04:10;;;;;;;3.85;1.20;;;;;;;25.33;37.73;101723.41;5200066;28;20929;-38
2022/07/01 10:07:15;;;;;;;7.20;1.40;;;;;;;25.22;37.86;101723.13;5197437;28;20433;-37
2022/07/01 10:10:06;;;;;;;6.10;1.27;;;;;;;25.07;38.06;101726.16;5200616;28;20437;-39
2022/07/01 10:12:43;;;;;;;8.48;1.90;;;;;;;24.93;38.10;101729.22;5195533;28;20428;-37
2022/07/01 10:15:20;;;;;;;8.07;1.70;;;;;;;24.65;38.56;101738.63;5199931;28;20522;-37
2022/07/01 10:17:53;;;;;;;6.53;1.73;;;;;;;24.36;38.83;101730.09;5199453;28;20521;-38
2022/07/01 10:20:28;;;;;;;6.25;1.20;;;;;;;24.22;39.32;101739.38;5200923;28;20420;-37
2022/07/01 10:23:07;;;;;;;5.15;1.40;;;;;;;24.08;39.20;101732.41;5200776;28;20445;-36
2022/07/01 10:25:43;;;;;;;5.90;1.60;;;;;;;24.13;39.47;101735.28;5198035;28;20503;-36
2022/07/01 10:28:23;;;;;;;5.78;1.70;;;;;;;24.17;39.41;101728.41;5201250;28;20429;-36
2022/07/01 10:31:02;;;;;;;6.68;1.80;;;;;;;24.20;39.44;101729.84;5194302;28;20421;-37
2022/07/01 10:33:41;;;;;;;5.72;1.55;;;;;;;24.03;39.53;101735.75;5191801;28;20417;-36
2022/07/01 10:36:18;;;;;;;12.38;2.00;;;;;;;23.89;39.80;101740.41;5198583;28;20418;-37
2022/07/01 10:39:22;;;;;;;5.78;1.88;;;;;;;23.76;40.01;101750.44;5199927;28;20465;-37
2022/07/01 10:42:05;;;;;;;5.25;1.50;;;;;;;23.71;39.96;101753.78;5188052;28;20420;-39
2022/07/01 10:44:38;;;;;;;4.63;1.35;;;;;;;23.70;40.33;101749.44;5192268;28;20531;-36
2022/07/01 10:47:15;;;;;;;8.27;2.33;;;;;;;23.99;40.23;101739.09;5196240;28;20425;-40
2022/07/01 10:49:58;;;;;;;6.37;1.90;;;;;;;24.33;39.98;101746.75;5198328;28;21052;-37
2022/07/01 10:52:30;;;;;;;6.77;2.00;;;;;;;24.70;39.57;101746.91;5199477;28;20417;-38
2022/07/01 10:55:07;;;;;;;10.30;1.77;;;;;;;24.95;39.58;101775.75;5188826;28;20412;-41
2022/07/01 10:57:42;;;;;;;5.07;1.50;;;;;;;25.02;39.34;101738.69;5196451;28;20417;-40
2022/07/01 11:00:34;;;;;;;7.50;1.55;;;;;;;24.95;39.07;101706.31;5193475;28;20444;-38
2022/07/01 11:03:40;;;;;;;7.43;1.17;;;;;;;25.38;38.70;101756.00;5192264;28;25899;-37
2022/07/01 11:06:13;;;;;;;6.47;1.63;;;;;;;25.44;38.35;101757.81;5192585;28;20567;-38
2022/07/01 11:08:50;;;;;;;5.85;1.23;;;;;;;25.49;38.16;101749.84;5198893;28;20463;-39
2022/07/01 11:11:25;;;;;;;6.80;1.40;;;;;;;25.55;37.74;101765.16;5198311;28;20405;-39
2022/07/01 11:13:58;;;;;;;5.80;1.25;;;;;;;25.66;37.48;101750.84;5197817;28;20417;-39
2022/07/01 11:16:32;;;;;;;3.97;1.50;;;;;;;25.87;37.21;101765.00;5199788;28;20571;-38
2022/07/01 11:19:07;;;;;;;4.50;1.15;;;;;;;26.00;36.89;101756.69;5196412;28;20466;-38
2022/07/01 11:21:49;;;;;;;4.47;1.15;;;;;;;26.13;36.67;101767.31;5202523;28;20514;-38
2022/07/01 11:24:22;;;;;;;5.57;1.00;;;;;;;26.24;36.55;101749.44;5200444;28;20421;-39
2022/07/01 11:27:06;;;;;;;4.87;1.03;;;;;;;26.53;36.08;101755.88;5199749;28;20416;-37
2022/07/01 11:29:39;;;;;;;7.77;1.50;;;;;;;26.55;35.93;101742.94;5195424;28;20901;-40
2022/07/01 11:32:12;;;;;;;4.50;0.97;;;;;;;26.50;36.03;101756.34;5199097;28;20418;-41
2022/07/01 11:34:45;;;;;;;5.82;1.42;;;;;;;26.49;35.92;101753.88;5196669;28;20525;-40
2022/07/01 11:40:11;;;;;;;5.60;1.30;;;;;;;26.39;35.45;101709.22;5198724;28;20426;-39
2022/07/01 11:42:46;;;;;;;2.63;1.00;;;;;;;26.73;35.26;101760.13;5198364;28;20441;-39
2022/07/01 11:45:27;;;;;;;5.07;1.52;;;;;;;26.49;35.35;101743.06;5199315;28;20417;-39
2022/07/01 11:48:00;;;;;;;6.18;1.50;;;;;;;26.43;35.41;101758.31;5201688;28;20491;-38
2022/07/01 11:50:34;;;;;;;7.35;1.35;;;;;;;26.39;35.42;101757.16;5199907;28;20425;-38
2022/07/01 11:53:09;;;;;;;3.53;1.30;;;;;;;26.38;35.39;101763.59;5197851;28;20572;-39
2022/07/01 11:55:46;;;;;;;9.48;2.08;;;;;;;26.13;35.45;101752.94;5201286;28;20463;-37
2022/07/01 11:58:21;;;;;;;5.18;1.20;;;;;;;26.03;35.47;101756.22;5187680;28;20504;-42
2022/07/01 12:00:54;;;;;;;6.88;1.50;;;;;;;25.74;35.74;101747.84;5197908;28;20743;-38
2022/07/01 12:03:35;;;;;;;5.50;1.27;;;;;;;25.74;36.00;101764.09;5204990;28;20457;-41
2022/07/01 12:06:08;;;;;;;7.35;1.30;;;;;;;25.59;36.04;101755.53;5195909;28;20753;-39
2022/07/01 12:08:43;;;;;;;4.78;1.75;;;;;;;25.40;36.32;101759.31;5198256;28;20512;-39